Time;durP1;ratioP1;P1;durP2;ratioP2;P2;SDS_P1;SDS_P2;PMS_P1;PMS_P2;Temp;Humidity;BMP_temperature;BMP_pressure;BME280_temperature;BME280_humidity;BME280_pressure;Samples;Min_cycle;Max_cycle;Signal;HPM_P1;HPM_P2
2022/05/13 00:02:19;;;;;;;2.33;1.98;;;;;;;;;;5124007;27;20580;-56
2022/05/13 00:04:59;;;;;;;2.33;1.70;;;;;;;;;;5121171;27;20544;-56
2022/05/13 00:07:39;;;;;;;2.15;1.95;;;;;;;;;;5082912;27;20546;-56
2022/05/13 00:10:18;;;;;;;2.45;1.83;;;;;;;;;;5083201;27;20561;-55
2022/05/13 00:12:59;;;;;;;2.35;1.90;;;;;;;;;;5107332;27;20534;-56
2022/05/13 00:15:39;;;;;;;2.00;1.90;;;;;;;;;;5122887;27;20550;-56
2022/05/13 00:18:20;;;;;;;3.58;2.30;;;;;;;;;;5123952;27;20663;-56
2022/05/13 00:20:59;;;;;;;2.00;1.90;;;;;;;;;;5082428;27;20553;-56
2022/05/13 00:23:39;;;;;;;2.42;2.22;;;;;;;;;;5124136;27;20535;-56
2022/05/13 00:26:19;;;;;;;3.45;2.00;;;;;;;;;;5082046;27;20585;-56
2022/05/13 00:28:59;;;;;;;2.63;2.22;;;;;;;;;;5082776;27;20914;-56
2022/05/13 00:31:39;;;;;;;2.67;1.98;;;;;;;;;;5103702;27;20548;-56
2022/05/13 00:34:19;;;;;;;2.75;1.70;;;;;;;;;;5115551;27;20544;-56
2022/05/13 00:37:00;;;;;;;4.00;2.05;;;;;;;;;;5081656;27;21016;-56
2022/05/13 00:39:40;;;;;;;1.92;1.83;;;;;;;;;;5103423;27;20611;-55
2022/05/13 00:42:22;;;;;;;2.00;1.90;;;;;;;;;;5083318;28;20676;-56
2022/05/13 00:45:03;;;;;;;2.15;2.05;;;;;;;;;;5137948;27;20544;-57
2022/05/13 00:47:43;;;;;;;2.22;2.03;;;;;;;;;;5103293;27;20583;-56
2022/05/13 00:50:24;;;;;;;2.47;2.20;;;;;;;;;;5144786;27;20538;-56
2022/05/13 00:53:04;;;;;;;1.80;1.70;;;;;;;;;;5083155;27;20548;-56
2022/05/13 00:55:45;;;;;;;2.80;2.40;;;;;;;;;;5120803;27;20544;-56
2022/05/13 00:58:25;;;;;;;4.00;2.15;;;;;;;;;;5083077;27;20555;-56
2022/05/13 01:01:05;;;;;;;4.28;2.40;;;;;;;;;;5103499;27;20662;-56
2022/05/13 01:03:45;;;;;;;2.75;2.15;;;;;;;;;;5083253;28;20675;-56
2022/05/13 01:06:25;;;;;;;2.50;2.33;;;;;;;;;;5122428;27;20676;-56
2022/05/13 01:09:09;;;;;;;1.80;1.70;;;;;;;;;;5097405;27;20566;-56
2022/05/13 01:11:50;;;;;;;2.63;2.20;;;;;;;;;;5103196;27;20592;-56
2022/05/13 01:14:32;;;;;;;3.25;2.33;;;;;;;;;;5083422;27;20568;-56
2022/05/13 01:20:22;;;;;;;2.78;1.98;;;;;;;;;;5144622;27;20654;-56
2022/05/13 01:23:03;;;;;;;2.72;2.05;;;;;;;;;;5083150;27;20564;-56
2022/05/13 01:25:44;;;;;;;2.08;1.88;;;;;;;;;;5142950;27;20550;-56
2022/05/13 01:28:26;;;;;;;5.30;2.50;;;;;;;;;;5082880;27;20556;-56
2022/05/13 01:31:08;;;;;;;4.28;2.20;;;;;;;;;;5083053;27;20550;-56
2022/05/13 01:33:48;;;;;;;3.50;2.05;;;;;;;;;;5103112;27;20603;-56
2022/05/13 01:36:28;;;;;;;2.05;1.88;;;;;;;;;;5158051;27;20679;-56
2022/05/13 01:39:07;;;;;;;2.10;2.00;;;;;;;;;;5155734;27;20541;-55
2022/05/13 01:41:47;;;;;;;3.78;1.90;;;;;;;;;;5103841;27;20591;-56
2022/05/13 01:44:27;;;;;;;1.88;1.77;;;;;;;;;;5123984;27;20670;-55
2022/05/13 01:47:07;;;;;;;3.35;2.10;;;;;;;;;;5081501;28;21126;-55
2022/05/13 01:49:47;;;;;;;2.75;2.55;;;;;;;;;;5103138;27;20542;-56
2022/05/13 01:52:26;;;;;;;3.00;2.80;;;;;;;;;;5144976;27;20535;-55
2022/05/13 01:55:07;;;;;;;3.35;3.08;;;;;;;;;;5077258;27;20567;-56
2022/05/13 01:57:48;;;;;;;3.50;3.25;;;;;;;;;;5083467;27;20577;-56
2022/05/13 02:00:28;;;;;;;3.50;3.20;;;;;;;;;;5083424;28;21079;-56
2022/05/13 02:06:07;;;;;;;3.05;2.75;;;;;;;;;;5070252;27;20869;-56
2022/05/13 02:08:46;;;;;;;3.25;3.00;;;;;;;;;;5083046;28;20684;-56
2022/05/13 02:11:27;;;;;;;2.45;2.25;;;;;;;;;;5083448;27;20551;-56
2022/05/13 02:14:08;;;;;;;2.40;2.20;;;;;;;;;;5145150;27;20586;-56
2022/05/13 02:16:49;;;;;;;2.40;2.20;;;;;;;;;;5122600;27;20555;-56
2022/05/13 02:19:29;;;;;;;2.80;2.60;;;;;;;;;;5144675;27;20558;-56
2022/05/13 02:22:08;;;;;;;7.07;2.20;;;;;;;;;;5083161;27;20580;-56
2022/05/13 02:24:48;;;;;;;2.83;2.50;;;;;;;;;;5103354;27;21066;-56
2022/05/13 02:27:28;;;;;;;2.58;2.38;;;;;;;;;;5083635;28;20871;-56
2022/05/13 02:30:09;;;;;;;3.15;2.85;;;;;;;;;;5083390;28;20543;-56
2022/05/13 02:32:49;;;;;;;4.00;2.30;;;;;;;;;;5083165;27;20539;-56
2022/05/13 02:35:29;;;;;;;2.78;2.10;;;;;;;;;;5075547;28;20599;-56
2022/05/13 02:38:09;;;;;;;2.40;2.30;;;;;;;;;;5140247;27;20665;-56
2022/05/13 02:43:48;;;;;;;3.78;2.75;;;;;;;;;;5083030;28;21125;-57
2022/05/13 02:46:29;;;;;;;3.80;2.92;;;;;;;;;;5081721;28;20573;-56
2022/05/13 02:49:09;;;;;;;4.60;2.75;;;;;;;;;;5102976;27;20588;-56
2022/05/13 02:51:50;;;;;;;3.00;2.80;;;;;;;;;;5083050;28;21091;-56
2022/05/13 02:54:30;;;;;;;2.75;2.55;;;;;;;;;;5143399;27;20669;-56
2022/05/13 02:57:10;;;;;;;2.72;2.35;;;;;;;;;;5093233;27;20892;-56
2022/05/13 02:59:50;;;;;;;2.60;2.40;;;;;;;;;;5103277;27;21220;-55
2022/05/13 03:02:30;;;;;;;2.75;2.55;;;;;;;;;;5083167;27;21149;-56
2022/05/13 03:05:10;;;;;;;4.57;2.38;;;;;;;;;;5077895;28;20615;-56
2022/05/13 03:07:50;;;;;;;3.45;3.15;;;;;;;;;;5135243;27;20607;-56
2022/05/13 03:10:30;;;;;;;3.90;2.47;;;;;;;;;;5123873;27;20700;-56
2022/05/13 03:13:11;;;;;;;4.00;3.03;;;;;;;;;;5082912;28;20575;-56
2022/05/13 03:15:51;;;;;;;3.80;2.85;;;;;;;;;;5092615;27;20688;-56
2022/05/13 03:18:30;;;;;;;3.03;2.72;;;;;;;;;;5082771;27;20572;-56
2022/05/13 03:21:11;;;;;;;2.95;2.75;;;;;;;;;;5082673;28;21024;-56
2022/05/13 03:23:51;;;;;;;2.67;2.47;;;;;;;;;;5124085;27;21068;-55
2022/05/13 03:26:30;;;;;;;5.93;3.30;;;;;;;;;;5080231;27;20581;-56
2022/05/13 03:29:11;;;;;;;2.47;2.38;;;;;;;;;;5124040;27;20536;-56
2022/05/13 03:31:51;;;;;;;3.17;2.97;;;;;;;;;;5082838;28;20616;-56
2022/05/13 03:34:31;;;;;;;4.30;2.75;;;;;;;;;;5145895;27;20596;-56
2022/05/13 03:37:11;;;;;;;2.92;2.72;;;;;;;;;;5100168;27;20561;-56
2022/05/13 03:39:51;;;;;;;2.97;2.70;;;;;;;;;;5101284;27;20665;-56
2022/05/13 03:42:31;;;;;;;3.70;3.40;;;;;;;;;;5101583;27;21017;-56
2022/05/13 03:45:12;;;;;;;3.85;3.08;;;;;;;;;;5129150;27;21232;-56
2022/05/13 03:47:52;;;;;;;4.78;4.22;;;;;;;;;;5100812;27;20674;-55
2022/05/13 03:50:32;;;;;;;3.45;3.15;;;;;;;;;;5080651;27;20569;-56
2022/05/13 03:53:13;;;;;;;3.58;3.28;;;;;;;;;;5082003;27;20664;-55
2022/05/13 03:55:53;;;;;;;3.03;2.83;;;;;;;;;;5131765;27;20672;-56
2022/05/13 03:58:33;;;;;;;3.75;3.45;;;;;;;;;;5117157;27;20579;-56
2022/05/13 04:01:13;;;;;;;3.00;2.80;;;;;;;;;;5116108;27;21053;-56
2022/05/13 04:03:52;;;;;;;3.25;2.95;;;;;;;;;;5083263;28;20668;-56
2022/05/13 04:09:29;;;;;;;3.78;3.20;;;;;;;;;;5101653;27;20619;-56
2022/05/13 04:18:14;;;;;;;3.15;2.88;;;;;;;;;;5118150;27;20550;-56
2022/05/13 04:20:54;;;;;;;6.28;2.88;;;;;;;;;;5081908;27;20604;-56
2022/05/13 04:23:34;;;;;;;3.90;3.53;;;;;;;;;;5103735;27;20534;-56
2022/05/13 04:26:14;;;;;;;3.97;3.60;;;;;;;;;;5121064;27;20556;-57
2022/05/13 04:28:54;;;;;;;3.75;3.45;;;;;;;;;;5103019;27;20606;-55
2022/05/13 04:31:37;;;;;;;4.15;3.70;;;;;;;;;;5077598;27;20621;-56
2022/05/13 04:34:17;;;;;;;4.15;3.63;;;;;;;;;;5132237;27;21181;-55
2022/05/13 04:36:57;;;;;;;4.00;3.65;;;;;;;;;;5061928;27;21097;-55
2022/05/13 04:39:37;;;;;;;3.67;3.40;;;;;;;;;;5101051;27;20604;-57
2022/05/13 04:45:14;;;;;;;3.65;3.40;;;;;;;;;;5147335;27;20546;-56
2022/05/13 04:50:56;;;;;;;4.10;3.80;;;;;;;;;;5080866;27;20548;-56
2022/05/13 04:53:37;;;;;;;4.80;4.40;;;;;;;;;;5146409;27;20538;-56
2022/05/13 04:56:18;;;;;;;3.80;3.45;;;;;;;;;;5125080;27;20554;-56
2022/05/13 04:58:58;;;;;;;4.85;3.58;;;;;;;;;;5081541;27;20543;-55
2022/05/13 05:01:38;;;;;;;3.13;2.92;;;;;;;;;;5083490;28;20667;-57
2022/05/13 05:04:19;;;;;;;3.47;3.22;;;;;;;;;;5136371;27;20556;-56
2022/05/13 05:06:59;;;;;;;3.58;3.28;;;;;;;;;;5061632;28;21689;-56
2022/05/13 05:09:39;;;;;;;3.90;3.53;;;;;;;;;;5116774;27;20541;-56
2022/05/13 05:12:18;;;;;;;3.60;3.30;;;;;;;;;;5143728;27;20551;-56
2022/05/13 05:14:59;;;;;;;3.55;3.25;;;;;;;;;;5081929;27;20568;-57
2022/05/13 05:17:38;;;;;;;4.15;3.05;;;;;;;;;;5134806;22;20650;-54
2022/05/13 05:20:18;;;;;;;4.32;3.40;;;;;;;;;;5081822;27;20587;-54
2022/05/13 05:22:58;;;;;;;4.57;3.70;;;;;;;;;;5081975;28;20715;-54
2022/05/13 05:25:38;;;;;;;3.92;3.50;;;;;;;;;;5081047;27;20638;-54
2022/05/13 05:28:17;;;;;;;3.78;3.47;;;;;;;;;;5069991;27;20574;-54
2022/05/13 05:31:00;;;;;;;4.45;3.60;;;;;;;;;;5082631;28;21184;-53
2022/05/13 05:33:40;;;;;;;3.60;3.30;;;;;;;;;;5125027;27;20548;-53
2022/05/13 05:36:20;;;;;;;3.70;3.40;;;;;;;;;;5076926;27;21093;-53
2022/05/13 05:39:00;;;;;;;4.38;3.88;;;;;;;;;;5103136;27;20669;-53
2022/05/13 05:41:40;;;;;;;4.63;3.25;;;;;;;;;;5144567;27;20539;-55
2022/05/13 05:44:19;;;;;;;3.25;3.05;;;;;;;;;;5083224;27;20560;-55
2022/05/13 05:47:00;;;;;;;3.85;3.55;;;;;;;;;;5143054;27;21137;-57
2022/05/13 05:49:41;;;;;;;3.88;3.25;;;;;;;;;;5124633;27;20532;-54
2022/05/13 05:52:21;;;;;;;3.90;3.60;;;;;;;;;;5144849;27;20541;-56
2022/05/13 05:57:59;;;;;;;3.85;2.60;;;;;;;;;;5076141;27;20559;-53
2022/05/13 06:00:41;;;;;;;3.55;3.13;;;;;;;;;;5124472;27;20535;-54
2022/05/13 06:03:21;;;;;;;2.70;2.50;;;;;;;;;;5083582;27;20536;-54
2022/05/13 06:06:02;;;;;;;4.70;2.97;;;;;;;;;;5145762;27;20542;-53
2022/05/13 06:08:42;;;;;;;4.38;3.30;;;;;;;;;;5082683;27;20624;-56
2022/05/13 06:11:23;;;;;;;4.22;3.50;;;;;;;;;;5083030;27;20547;-52
2022/05/13 06:14:03;;;;;;;5.35;2.72;;;;;;;;;;5083143;27;20566;-54
2022/05/13 06:16:43;;;;;;;7.45;2.65;;;;;;;;;;5092812;27;20583;-53
2022/05/13 06:19:23;;;;;;;2.30;2.13;;;;;;;;;;5123882;27;20544;-53
2022/05/13 06:22:03;;;;;;;3.63;2.35;;;;;;;;;;5144268;27;20538;-54
2022/05/13 06:24:43;;;;;;;4.00;2.40;;;;;;;;;;5083238;28;20675;-54
2022/05/13 06:27:22;;;;;;;2.33;2.13;;;;;;;;;;5076039;27;20552;-55
2022/05/13 06:30:02;;;;;;;4.55;2.63;;;;;;;;;;5103963;27;21074;-54
2022/05/13 06:32:42;;;;;;;2.08;1.88;;;;;;;;;;5083036;28;20593;-55
2022/05/13 06:35:22;;;;;;;2.45;2.05;;;;;;;;;;5081916;28;20687;-55
2022/05/13 06:38:02;;;;;;;2.15;1.90;;;;;;;;;;5164092;27;20548;-54
2022/05/13 06:40:41;;;;;;;5.22;2.53;;;;;;;;;;5083368;28;20552;-54
2022/05/13 06:43:22;;;;;;;4.10;2.10;;;;;;;;;;5083375;27;20535;-54
2022/05/13 06:46:01;;;;;;;3.15;2.10;;;;;;;;;;5099671;27;20550;-55
2022/05/13 06:48:41;;;;;;;2.35;1.92;;;;;;;;;;5082910;27;20531;-55
2022/05/13 06:51:21;;;;;;;2.15;2.00;;;;;;;;;;5119007;27;20545;-55
2022/05/13 06:54:03;;;;;;;2.47;2.28;;;;;;;;;;5144917;27;20539;-56
2022/05/13 06:56:44;;;;;;;10.02;2.28;;;;;;;;;;5073739;27;20902;-55
2022/05/13 06:59:24;;;;;;;4.10;1.95;;;;;;;;;;5103337;27;20900;-55
2022/05/13 07:02:03;;;;;;;3.65;1.83;;;;;;;;;;5103473;27;21050;-55
2022/05/13 07:04:43;;;;;;;1.92;1.80;;;;;;;;;;5103851;27;20681;-52
2022/05/13 07:07:23;;;;;;;3.50;1.83;;;;;;;;;;5082670;28;20605;-53
2022/05/13 07:10:03;;;;;;;3.38;2.03;;;;;;;;;;5082931;28;20597;-54
2022/05/13 07:12:43;;;;;;;9.25;2.05;;;;;;;;;;5136709;27;20941;-57
2022/05/13 07:15:22;;;;;;;3.15;1.52;;;;;;;;;;5082640;27;20576;-52
2022/05/13 07:18:02;;;;;;;3.17;1.90;;;;;;;;;;5080612;27;21047;-54
2022/05/13 07:20:42;;;;;;;4.35;2.10;;;;;;;;;;5083043;27;20555;-54
2022/05/13 07:23:22;;;;;;;2.72;2.30;;;;;;;;;;5133460;27;20601;-55
2022/05/13 07:26:02;;;;;;;3.90;1.80;;;;;;;;;;5079284;28;20961;-55
2022/05/13 07:28:42;;;;;;;1.90;1.77;;;;;;;;;;5083188;28;20557;-55
2022/05/13 07:31:21;;;;;;;1.90;1.75;;;;;;;;;;5103456;27;20603;-55
2022/05/13 07:34:01;;;;;;;2.90;1.85;;;;;;;;;;5145688;27;20547;-54
2022/05/13 07:36:41;;;;;;;4.35;2.03;;;;;;;;;;5114427;27;20557;-52
2022/05/13 07:42:19;;;;;;;3.75;1.92;;;;;;;;;;5083849;27;20832;-56
2022/05/13 07:44:58;;;;;;;2.97;2.00;;;;;;;;;;5083127;28;20593;-55
2022/05/13 07:47:39;;;;;;;5.53;1.85;;;;;;;;;;5083060;27;20562;-53
2022/05/13 07:50:20;;;;;;;4.15;2.15;;;;;;;;;;5103894;27;21254;-53
2022/05/13 07:53:01;;;;;;;3.33;2.00;;;;;;;;;;5083053;28;20551;-56
2022/05/13 07:55:41;;;;;;;2.65;1.80;;;;;;;;;;5143244;27;20611;-53
2022/05/13 07:58:20;;;;;;;5.30;1.85;;;;;;;;;;5070042;27;20571;-53
2022/05/13 08:01:00;;;;;;;4.72;1.90;;;;;;;;;;5144704;27;20604;-53
2022/05/13 08:03:41;;;;;;;5.28;2.58;;;;;;;;;;5124233;27;20539;-54
2022/05/13 08:06:21;;;;;;;3.40;2.05;;;;;;;;;;5117309;27;20545;-55
2022/05/13 08:09:01;;;;;;;12.93;2.00;;;;;;;;;;5142284;27;21058;-54
2022/05/13 08:11:42;;;;;;;3.50;2.03;;;;;;;;;;5083342;28;20672;-53
2022/05/13 08:14:23;;;;;;;5.53;1.77;;;;;;;;;;5083387;28;20672;-55
2022/05/13 08:17:02;;;;;;;3.25;1.85;;;;;;;;;;5122597;27;20693;-53
2022/05/13 08:19:42;;;;;;;2.72;1.90;;;;;;;;;;5104140;27;21186;-53
2022/05/13 08:22:22;;;;;;;3.00;1.90;;;;;;;;;;5083199;28;20671;-53
2022/05/13 08:25:02;;;;;;;2.42;1.73;;;;;;;;;;5144866;27;20661;-54
2022/05/13 08:27:42;;;;;;;2.35;1.88;;;;;;;;;;5076382;27;20720;-55
2022/05/13 08:30:24;;;;;;;2.47;1.83;;;;;;;;;;5083262;27;21104;-52
2022/05/13 08:33:08;;;;;;;2.15;1.90;;;;;;;;;;5085286;27;20557;-56
2022/05/13 08:35:50;;;;;;;2.83;2.10;;;;;;;;;;5142976;27;20534;-53
2022/05/13 08:38:32;;;;;;;1.77;1.38;;;;;;;;;;5083230;27;20579;-54
2022/05/13 08:41:28;;;;;;;2.20;1.65;;;;;;;;;;5115853;27;20532;-54
2022/05/13 08:44:09;;;;;;;3.72;1.58;;;;;;;;;;5127631;27;20538;-52
2022/05/13 08:46:57;;;;;;;5.65;2.08;;;;;;;;;;5152502;27;20553;-57
2022/05/13 08:49:44;;;;;;;2.38;1.63;;;;;;;;;;5083226;28;20679;-55
2022/05/13 08:55:36;;;;;;;4.88;1.50;;;;;;;;;;5122557;27;20600;-56
2022/05/13 08:58:19;;;;;;;1.50;1.40;;;;;;;;;;5083437;27;20557;-54
2022/05/13 09:01:01;;;;;;;2.60;1.30;;;;;;;;;;5083541;27;21124;-55
2022/05/13 09:03:42;;;;;;;3.50;1.45;;;;;;;;;;5124263;27;20697;-54
2022/05/13 09:06:30;;;;;;;1.95;1.52;;;;;;;;;;5076319;28;20971;-52
2022/05/13 09:09:12;;;;;;;2.47;1.85;;;;;;;;;;5082871;27;20557;-53
2022/05/13 09:11:56;;;;;;;1.95;1.20;;;;;;;;;;5082932;27;20672;-53
2022/05/13 09:14:39;;;;;;;2.38;1.30;;;;;;;;;;5083467;28;20683;-53
2022/05/13 09:17:30;;;;;;;2.67;1.20;;;;;;;;;;5121022;27;20564;-53
2022/05/13 09:20:13;;;;;;;3.45;1.50;;;;;;;;;;5144793;27;20542;-55
2022/05/13 09:22:53;;;;;;;3.65;1.08;;;;;;;;;;5083121;27;20536;-51
2022/05/13 09:25:36;;;;;;;2.13;1.40;;;;;;;;;;5082236;28;20664;-52
2022/05/13 09:28:17;;;;;;;1.60;1.23;;;;;;;;;;5083249;27;20564;-53
2022/05/13 09:31:01;;;;;;;2.08;1.20;;;;;;;;;;5126739;27;20613;-54
2022/05/13 09:33:46;;;;;;;2.80;1.33;;;;;;;;;;5128741;27;20544;-56
2022/05/13 09:36:33;;;;;;;6.07;1.02;;;;;;;;;;5096094;27;20683;-54
2022/05/13 09:39:22;;;;;;;2.03;1.52;;;;;;;;;;5123568;27;20540;-52
2022/05/13 09:42:18;;;;;;;1.85;1.33;;;;;;;;;;5144185;27;20539;-53
2022/05/13 09:45:15;;;;;;;1.45;0.90;;;;;;;;;;5102060;27;20950;-58
2022/05/13 09:48:02;;;;;;;1.20;1.10;;;;;;;;;;5083236;28;20687;-54
2022/05/13 09:50:43;;;;;;;2.25;1.20;;;;;;;;;;5103507;27;20541;-53
2022/05/13 09:53:31;;;;;;;1.27;1.20;;;;;;;;;;5103497;27;20541;-53
2022/05/13 09:56:14;;;;;;;3.22;1.60;;;;;;;;;;5118343;27;20553;-56
2022/05/13 09:58:55;;;;;;;4.47;1.42;;;;;;;;;;5083129;27;21057;-55
2022/05/13 10:01:34;;;;;;;3.78;1.42;;;;;;;;;;5082843;28;21116;-52
2022/05/13 10:04:20;;;;;;;3.15;1.27;;;;;;;;;;5145086;27;20546;-52
2022/05/13 10:07:05;;;;;;;8.68;1.60;;;;;;;;;;5070946;28;20585;-53
2022/05/13 10:15:48;;;;;;;2.75;1.58;;;;;;;;;;5100470;27;20583;-54
2022/05/13 10:18:29;;;;;;;3.78;1.42;;;;;;;;;;5083038;28;20553;-54
2022/05/13 10:21:11;;;;;;;6.95;1.38;;;;;;;;;;5082216;27;20559;-54
2022/05/13 10:23:54;;;;;;;2.60;1.17;;;;;;;;;;5144791;27;20546;-53
2022/05/13 10:26:37;;;;;;;20.25;2.00;;;;;;;;;;5094874;27;21158;-52
2022/05/13 10:29:19;;;;;;;3.15;1.40;;;;;;;;;;5144816;27;20534;-55
2022/05/13 10:32:02;;;;;;;1.88;1.58;;;;;;;;;;5083534;27;21080;-54
2022/05/13 10:34:43;;;;;;;2.38;1.40;;;;;;;;;;5083344;28;20968;-52
2022/05/13 10:37:27;;;;;;;1.92;1.50;;;;;;;;;;5134947;27;20607;-54
2022/05/13 10:40:09;;;;;;;2.50;1.50;;;;;;;;;;5083670;28;20680;-54
2022/05/13 10:42:53;;;;;;;1.58;1.48;;;;;;;;;;5084086;27;20900;-54
2022/05/13 10:45:35;;;;;;;3.38;1.75;;;;;;;;;;5137172;27;20589;-53
2022/05/13 10:48:23;;;;;;;3.25;1.15;;;;;;;;;;5082749;28;20684;-53
2022/05/13 10:51:19;;;;;;;2.85;1.45;;;;;;;;;;5103306;27;20714;-55
2022/05/13 10:54:04;;;;;;;2.17;1.30;;;;;;;;;;5144674;27;20542;-54
2022/05/13 10:56:53;;;;;;;1.40;1.17;;;;;;;;;;5073361;28;21548;-53
2022/05/13 10:59:36;;;;;;;3.10;1.40;;;;;;;;;;5103846;27;20542;-52
2022/05/13 11:02:31;;;;;;;1.65;1.20;;;;;;;;;;5083117;27;21012;-55
2022/05/13 11:05:14;;;;;;;1.60;1.40;;;;;;;;;;5102548;27;20568;-54
2022/05/13 11:07:59;;;;;;;1.70;1.20;;;;;;;;;;5081900;27;20581;-53
2022/05/13 11:10:42;;;;;;;3.53;1.02;;;;;;;;;;5100389;27;21254;-54
2022/05/13 11:13:25;;;;;;;2.45;1.17;;;;;;;;;;5133815;27;20546;-54
2022/05/13 11:16:08;;;;;;;1.77;1.20;;;;;;;;;;5098706;27;20975;-52
2022/05/13 11:18:50;;;;;;;1.63;1.23;;;;;;;;;;5124556;27;20548;-55
2022/05/13 11:21:35;;;;;;;3.13;1.23;;;;;;;;;;5079225;28;20447;-54
2022/05/13 11:27:22;;;;;;;3.17;1.20;;;;;;;;;;5114527;27;21077;-52
2022/05/13 11:30:08;;;;;;;2.20;1.63;;;;;;;;;;5136045;27;20547;-53
2022/05/13 11:32:49;;;;;;;2.83;1.52;;;;;;;;;;5083628;27;21116;-55
2022/05/13 11:35:39;;;;;;;1.70;0.88;;;;;;;;;;5083302;28;20679;-55
2022/05/13 11:38:45;;;;;;;2.55;1.30;;;;;;;;;;5083557;27;20551;-53
2022/05/13 11:41:24;;;;;;;2.63;1.55;;;;;;;;;;5084193;28;20593;-53
2022/05/13 11:44:05;;;;;;;1.67;1.08;;;;;;;;;;5147727;27;20542;-53
2022/05/13 11:46:52;;;;;;;2.92;1.20;;;;;;;;;;5124002;27;20556;-52
2022/05/13 11:49:32;;;;;;;2.15;1.95;;;;;;;;;;5145284;27;20661;-53
2022/05/13 11:52:30;;;;;;;3.53;1.50;;;;;;;;;;5124539;27;20559;-53
2022/05/13 11:55:16;;;;;;;2.53;1.52;;;;;;;;;;5153098;27;20539;-53
2022/05/13 11:57:57;;;;;;;1.70;1.17;;;;;;;;;;5126017;27;20676;-53
2022/05/13 12:00:38;;;;;;;1.73;1.10;;;;;;;;;;5084566;28;20585;-53
2022/05/13 12:03:20;;;;;;;3.10;1.42;;;;;;;;;;5103521;27;20619;-53
2022/05/13 12:06:04;;;;;;;3.05;1.05;;;;;;;;;;5079450;27;20551;-53
2022/05/13 12:08:46;;;;;;;4.80;1.20;;;;;;;;;;5145770;27;20876;-53
2022/05/13 12:11:44;;;;;;;2.30;1.23;;;;;;;;;;5084441;28;20656;-53
2022/05/13 12:14:29;;;;;;;4.32;1.50;;;;;;;;;;5084405;28;21031;-53
2022/05/13 12:17:12;;;;;;;1.50;0.98;;;;;;;;;;5145535;27;20549;-53
2022/05/13 12:19:55;;;;;;;2.42;1.02;;;;;;;;;;5083517;28;20555;-53
2022/05/13 12:22:43;;;;;;;2.60;1.15;;;;;;;;;;5131856;27;20542;-53
2022/05/13 12:25:40;;;;;;;1.67;1.17;;;;;;;;;;5083325;27;20551;-53
2022/05/13 12:28:39;;;;;;;1.20;1.10;;;;;;;;;;5070549;27;20597;-53
2022/05/13 12:31:21;;;;;;;1.58;0.68;;;;;;;;;;5084586;27;20544;-53
2022/05/13 12:40:09;;;;;;;0.70;0.68;;;;;;;;;;5083546;27;20548;-53
2022/05/13 12:42:57;;;;;;;2.40;1.02;;;;;;;;;;5083968;27;21010;-53
2022/05/13 12:45:46;;;;;;;1.65;0.90;;;;;;;;;;5083761;28;20696;-53
2022/05/13 12:48:25;;;;;;;1.70;0.80;;;;;;;;;;5131279;27;20659;-52
2022/05/13 12:51:18;;;;;;;1.50;0.85;;;;;;;;;;5162839;27;20537;-53
2022/05/13 12:53:59;;;;;;;2.55;1.13;;;;;;;;;;5124477;27;20544;-52
2022/05/13 12:56:40;;;;;;;1.83;0.80;;;;;;;;;;5079019;27;21117;-53
2022/05/13 12:59:25;;;;;;;1.67;1.00;;;;;;;;;;5132226;27;20671;-53
2022/05/13 13:02:06;;;;;;;1.95;0.73;;;;;;;;;;5104341;27;20607;-53
2022/05/13 13:04:53;;;;;;;1.35;0.98;;;;;;;;;;5084401;28;20620;-53
2022/05/13 13:07:35;;;;;;;1.45;0.88;;;;;;;;;;5104272;27;21185;-54
2022/05/13 13:10:20;;;;;;;3.67;1.20;;;;;;;;;;5104707;27;20538;-53
2022/05/13 13:13:04;;;;;;;1.67;0.70;;;;;;;;;;5145229;27;20580;-53
2022/05/13 13:15:48;;;;;;;6.47;1.20;;;;;;;;;;5103406;27;20542;-53
2022/05/13 13:18:32;;;;;;;1.35;0.93;;;;;;;;;;5153896;27;20538;-55
2022/05/13 13:21:15;;;;;;;2.05;0.80;;;;;;;;;;5124766;27;21100;-53
2022/05/13 13:23:54;;;;;;;2.25;0.77;;;;;;;;;;5104128;27;20538;-53
2022/05/13 13:26:34;;;;;;;2.00;0.85;;;;;;;;;;5119717;27;20553;-53
2022/05/13 13:29:15;;;;;;;0.98;0.80;;;;;;;;;;5083788;28;21026;-53
2022/05/13 13:31:58;;;;;;;2.88;0.90;;;;;;;;;;5124803;27;20754;-53
2022/05/13 13:34:40;;;;;;;1.00;0.70;;;;;;;;;;5153838;27;20540;-53
2022/05/13 13:37:22;;;;;;;2.80;0.98;;;;;;;;;;5123756;27;21064;-55
2022/05/13 13:40:12;;;;;;;1.25;0.73;;;;;;;;;;5083896;28;20664;-53
2022/05/13 13:42:52;;;;;;;2.03;1.65;;;;;;;;;;5083729;28;20671;-53
2022/05/13 13:45:32;;;;;;;6.88;1.00;;;;;;;;;;5083260;28;20795;-55
2022/05/13 13:48:14;;;;;;;3.00;0.95;;;;;;;;;;5131189;27;20540;-53
2022/05/13 13:50:55;;;;;;;2.05;1.02;;;;;;;;;;5104201;27;20546;-53
2022/05/13 13:53:38;;;;;;;2.78;0.75;;;;;;;;;;5152203;27;20923;-53
2022/05/13 13:56:19;;;;;;;4.63;1.08;;;;;;;;;;5081105;27;20581;-53
2022/05/13 13:59:06;;;;;;;1.42;0.50;;;;;;;;;;5164237;27;20541;-53
2022/05/13 14:01:49;;;;;;;1.17;0.52;;;;;;;;;;5104132;27;20533;-52
2022/05/13 14:04:29;;;;;;;1.95;0.75;;;;;;;;;;5084573;27;20577;-53
2022/05/13 14:07:12;;;;;;;3.22;1.05;;;;;;;;;;5091695;27;20570;-53
2022/05/13 14:09:54;;;;;;;1.05;0.60;;;;;;;;;;5154058;27;20539;-53
2022/05/13 14:12:34;;;;;;;0.85;0.85;;;;;;;;;;5161497;27;20533;-53
2022/05/13 14:15:17;;;;;;;4.32;1.00;;;;;;;;;;5083523;27;20551;-53
2022/05/13 14:17:57;;;;;;;4.05;0.73;;;;;;;;;;5103584;27;20549;-53
2022/05/13 14:20:38;;;;;;;2.92;0.88;;;;;;;;;;5125088;27;20588;-53
2022/05/13 14:23:18;;;;;;;1.33;0.70;;;;;;;;;;5124947;27;20598;-53
2022/05/13 14:26:02;;;;;;;3.38;1.10;;;;;;;;;;5103276;27;20930;-52
2022/05/13 14:28:47;;;;;;;2.55;0.80;;;;;;;;;;5083363;27;21025;-52
2022/05/13 14:31:34;;;;;;;2.33;0.60;;;;;;;;;;5084175;28;20568;-53
2022/05/13 14:34:15;;;;;;;2.40;0.95;;;;;;;;;;5104594;27;20546;-53
2022/05/13 14:36:58;;;;;;;2.97;0.80;;;;;;;;;;5083481;27;20563;-53
2022/05/13 14:39:51;;;;;;;2.10;0.80;;;;;;;;;;5104486;27;20599;-54
2022/05/13 14:42:34;;;;;;;1.05;0.85;;;;;;;;;;5104867;27;20908;-52
2022/05/13 14:45:20;;;;;;;1.55;0.95;;;;;;;;;;5103440;27;21058;-53
2022/05/13 14:48:13;;;;;;;3.35;0.88;;;;;;;;;;5144905;27;20558;-53
2022/05/13 14:50:59;;;;;;;1.23;0.70;;;;;;;;;;5154175;27;20898;-53
2022/05/13 14:53:52;;;;;;;1.63;0.90;;;;;;;;;;5084385;27;20901;-52
2022/05/13 14:56:44;;;;;;;3.20;0.75;;;;;;;;;;5076771;27;20590;-53
2022/05/13 14:59:31;;;;;;;1.42;0.60;;;;;;;;;;5123633;27;20947;-53
2022/05/13 15:02:14;;;;;;;2.17;0.93;;;;;;;;;;5083679;28;20703;-52
2022/05/13 15:04:56;;;;;;;1.55;1.00;;;;;;;;;;5084351;27;20555;-52
2022/05/13 15:07:38;;;;;;;2.55;1.10;;;;;;;;;;5105020;27;20553;-52
2022/05/13 15:10:21;;;;;;;0.93;0.52;;;;;;;;;;5123512;27;21317;-53
2022/05/13 15:13:01;;;;;;;1.05;0.65;;;;;;;;;;5124221;27;20964;-53
2022/05/13 15:15:41;;;;;;;0.73;0.52;;;;;;;;;;5083116;28;20586;-53
2022/05/13 15:18:24;;;;;;;2.25;0.80;;;;;;;;;;5124328;27;20539;-53
2022/05/13 15:21:04;;;;;;;1.02;0.40;;;;;;;;;;5083456;28;20663;-53
2022/05/13 15:23:45;;;;;;;2.13;0.65;;;;;;;;;;5083350;27;20584;-53
2022/05/13 15:26:26;;;;;;;1.20;0.70;;;;;;;;;;5078123;28;21009;-52
2022/05/13 15:29:06;;;;;;;0.75;0.52;;;;;;;;;;5084311;28;20606;-53
2022/05/13 15:31:47;;;;;;;2.55;0.77;;;;;;;;;;5089544;27;20551;-54
2022/05/13 15:34:26;;;;;;;1.55;0.70;;;;;;;;;;5082052;27;20556;-54
2022/05/13 15:37:07;;;;;;;3.20;1.05;;;;;;;;;;5115352;27;20589;-56
2022/05/13 15:39:49;;;;;;;1.88;0.50;;;;;;;;;;5134110;27;20535;-54
2022/05/13 15:42:27;;;;;;;;;;;;;;;;;;5083425;28;20560;-53
2022/05/13 15:45:06;;;;;;;;;;;;;;;;;;5103867;27;19961;-52
2022/05/13 15:47:46;;;;;;;;;;;;;;;;;;5124551;27;19916;-53
2022/05/13 15:53:23;;;;;;;;;;;;;;;;;;5105316;27;20397;-53
2022/05/13 15:56:03;;;;;;;;;;;;;;;;;;5135554;27;19926;-52
2022/05/13 15:58:43;;;;;;;;;;;;;;;;;;5125112;27;19929;-56
2022/05/13 16:01:23;;;;;;;;;;;;;;;;;;5125426;27;19915;-57
2022/05/13 16:04:02;;;;;;;;;;;;;;;;;;5143726;27;20315;-57
2022/05/13 16:06:42;;;;;;;;;;;;;;;;;;5096239;27;19912;-56
2022/05/13 16:09:22;;;;;;;;;;;;;;;;;;5099561;27;19916;-57
2022/05/13 16:12:02;;;;;;;;;;;;;;;;;;5124745;27;19915;-56
2022/05/13 16:14:42;;;;;;;;;;;;;;;;;;5124745;27;19911;-57
2022/05/13 16:17:22;;;;;;;;;;;;;;;;;;5091217;27;20348;-58
2022/05/13 16:20:03;;;;;;;;;;;;;;;;;;5124833;27;20401;-56
2022/05/13 16:22:43;;;;;;;;;;;;;;;;;;5127328;27;19926;-57
2022/05/13 16:25:24;;;;;;;;;;;;;;;;;;5123288;27;20365;-56
2022/05/13 16:28:04;;;;;;;;;;;;;;;;;;5135920;27;19911;-56
2022/05/13 16:30:44;;;;;;;;;;;;;;;;;;5122863;27;19912;-58
2022/05/13 16:33:24;;;;;;;;;;;;;;;;;;5103209;27;19912;-58
2022/05/13 16:36:04;;;;;;;;;;;;;;;;;;5101817;27;20343;-58
2022/05/13 16:38:46;;;;;;;;;;;;;;;;;;5105011;27;20255;-56
2022/05/13 16:41:25;;;;;;;;;;;;;;;;;;5124492;27;19920;-56
2022/05/13 16:44:06;;;;;;;;;;;;;;;;;;5124702;27;19912;-55
2022/05/13 16:46:45;;;;;;;;;;;;;;;;;;5096509;27;20436;-57
2022/05/13 16:49:24;;;;;;;;;;;;;;;;;;5105560;27;19912;-56
2022/05/13 16:52:04;;;;;;;;;;;;;;;;;;5125946;27;19912;-57
2022/05/13 16:54:44;;;;;;;;;;;;;;;;;;5105318;27;19913;-56
2022/05/13 16:57:24;;;;;;;;;;;;;;;;;;5098572;27;19916;-57
2022/05/13 17:00:05;;;;;;;;;;;;;;;;;;5125686;27;19911;-56
2022/05/13 17:02:43;;;;;;;;;;;;;;;;;;5125798;27;20369;-57
2022/05/13 17:05:23;;;;;;;;;;;;;;;;;;5125398;27;20218;-57
2022/05/13 17:08:03;;;;;;;;;;;;;;;;;;5125760;27;19912;-56
2022/05/13 17:16:38;;;;;;;;;;;;;;;;;;5118294;27;19916;-55
2022/05/13 17:19:18;;;;;;;;;;;;;;;;;;5106496;27;19926;-56